Time;durP1;ratioP1;P1;durP2;ratioP2;P2;SDS_P1;SDS_P2;PMS_P1;PMS_P2;Temp;Humidity;BMP_temperature;BMP_pressure;BME280_temperature;BME280_humidity;BME280_pressure;Samples;Min_cycle;Max_cycle;Signal;HPM_P1;HPM_P2
2022/05/22 00:02:22;;;;;;;3.58;0.90;;;;;;;26.50;25.01;100727.09;5079375;28;20486;-71
2022/05/22 00:04:49;;;;;;;2.58;1.13;;;;;;;26.45;25.02;100722.50;5070096;28;20423;-70
2022/05/22 00:07:16;;;;;;;2.08;0.80;;;;;;;26.53;24.96;100726.56;5069779;28;20507;-70
2022/05/22 00:09:43;;;;;;;1.53;0.90;;;;;;;26.58;24.69;100723.81;5069201;28;20421;-70
2022/05/22 00:12:11;;;;;;;5.47;1.00;;;;;;;26.53;24.56;100734.72;5069870;28;20517;-70
2022/05/22 00:14:39;;;;;;;1.73;0.98;;;;;;;26.39;24.82;100728.22;5069948;28;20497;-73
2022/05/22 00:17:09;;;;;;;2.28;0.90;;;;;;;26.37;24.75;100730.41;5070157;28;20450;-70
2022/05/22 00:20:20;;;;;;;1.88;1.00;;;;;;;26.45;24.65;100732.53;5097064;27;20467;-71
2022/05/22 00:22:47;;;;;;;2.53;0.90;;;;;;;26.50;24.74;100735.25;5085261;28;20923;-68
2022/05/22 00:25:14;;;;;;;1.48;0.82;;;;;;;26.32;24.91;100731.22;5085795;28;20414;-68
2022/05/22 00:27:42;;;;;;;3.63;1.10;;;;;;;26.29;25.18;100729.06;5086084;28;20418;-68
2022/05/22 00:30:11;;;;;;;2.25;0.90;;;;;;;26.18;25.20;100731.00;5086154;28;20501;-68
2022/05/22 00:32:38;;;;;;;2.60;0.93;;;;;;;26.15;25.28;100728.00;5086064;28;20500;-69
2022/05/22 00:35:06;;;;;;;1.50;0.93;;;;;;;26.03;25.38;100720.94;5085645;28;20881;-68
2022/05/22 00:37:34;;;;;;;3.72;0.90;;;;;;;26.08;25.20;100729.09;5085675;28;20422;-69
2022/05/22 00:40:01;;;;;;;2.70;0.80;;;;;;;25.99;25.35;100730.72;5085978;28;20432;-70
2022/05/22 00:42:29;;;;;;;2.60;1.00;;;;;;;25.89;25.70;100725.25;5085571;28;20421;-68
2022/05/22 00:44:56;;;;;;;1.45;0.90;;;;;;;25.93;25.48;100726.41;5086088;28;20505;-69
2022/05/22 00:47:24;;;;;;;2.53;1.10;;;;;;;25.98;25.27;100723.66;5086108;28;20938;-68
2022/05/22 00:49:59;;;;;;;2.15;0.80;;;;;;;25.93;25.24;100716.34;5085795;28;20445;-68
2022/05/22 00:52:31;;;;;;;1.87;0.87;;;;;;;25.99;25.02;100722.59;5086049;28;20420;-69
2022/05/22 00:55:05;;;;;;;3.05;0.95;;;;;;;26.02;25.22;100723.94;5074666;28;20428;-68
2022/05/22 00:57:35;;;;;;;2.63;1.42;;;;;;;26.11;25.31;100722.31;5082460;28;20492;-68
2022/05/22 01:00:08;;;;;;;2.30;0.93;;;;;;;26.13;25.33;100723.66;5085410;28;20430;-69
2022/05/22 01:05:16;;;;;;;2.78;1.00;;;;;;;26.17;25.22;100728.53;5084883;28;20818;-68
2022/05/22 01:07:43;;;;;;;2.72;0.80;;;;;;;26.08;25.26;100723.66;5084718;28;20422;-68
2022/05/22 01:10:13;;;;;;;2.60;0.90;;;;;;;26.08;25.49;100725.56;5085664;28;20418;-68
2022/05/22 01:12:43;;;;;;;4.50;0.90;;;;;;;26.04;25.54;100729.94;5085024;28;20493;-69
2022/05/22 01:15:11;;;;;;;3.30;1.10;;;;;;;26.04;25.68;100728.00;5084615;28;21028;-69
2022/05/22 01:17:42;;;;;;;2.27;1.03;;;;;;;25.89;25.93;100728.81;5085194;28;20446;-69
2022/05/22 01:20:11;;;;;;;1.10;0.85;;;;;;;25.73;26.10;100719.00;5104815;28;20428;-69
2022/05/22 01:22:40;;;;;;;3.00;1.10;;;;;;;25.78;26.04;100729.88;5105432;28;20452;-68
2022/05/22 01:25:08;;;;;;;1.55;0.90;;;;;;;25.46;26.63;100728.25;5105601;28;20499;-71
2022/05/22 01:27:36;;;;;;;4.22;1.00;;;;;;;25.46;26.69;100727.41;5105397;28;20413;-68
2022/05/22 01:30:11;;;;;;;2.03;1.00;;;;;;;25.42;26.79;100721.72;5101248;28;20500;-75
2022/05/22 01:32:39;;;;;;;2.08;1.08;;;;;;;25.41;26.94;100720.09;5091582;28;20940;-68
2022/05/22 01:35:07;;;;;;;2.80;1.00;;;;;;;25.54;26.87;100722.28;5091337;28;20417;-69
2022/05/22 01:37:34;;;;;;;2.92;0.90;;;;;;;25.13;27.21;100719.44;5091454;28;20500;-68
2022/05/22 01:40:03;;;;;;;2.20;1.00;;;;;;;25.21;27.21;100714.59;5092318;28;20431;-68
2022/05/22 01:42:30;;;;;;;1.20;0.90;;;;;;;25.38;27.01;100715.19;5091688;28;20855;-68
2022/05/22 01:44:57;;;;;;;3.28;1.10;;;;;;;25.36;27.03;100722.78;5091344;28;20492;-68
2022/05/22 01:47:24;;;;;;;1.85;1.00;;;;;;;25.29;27.22;100724.97;5091401;28;20488;-71
2022/05/22 01:49:51;;;;;;;2.17;1.00;;;;;;;25.28;27.42;100723.31;5091391;28;20496;-68
2022/05/22 01:52:18;;;;;;;3.60;1.35;;;;;;;25.32;27.22;100724.44;5091340;28;20511;-69
2022/05/22 01:54:45;;;;;;;1.13;0.93;;;;;;;25.46;27.10;100724.69;5091480;28;20981;-68
2022/05/22 01:57:13;;;;;;;3.73;1.10;;;;;;;25.55;26.95;100723.06;5091591;28;20500;-68
2022/05/22 01:59:40;;;;;;;1.67;1.00;;;;;;;25.56;26.95;100730.16;5091213;28;20428;-68
2022/05/22 02:02:07;;;;;;;5.70;1.15;;;;;;;25.41;27.25;100732.81;5091087;28;20942;-68
2022/05/22 02:04:34;;;;;;;2.00;0.90;;;;;;;25.30;27.29;100716.56;5091112;28;20417;-68
2022/05/22 02:09:45;;;;;;;2.78;1.10;;;;;;;25.32;27.66;100722.53;5090612;28;20433;-68
2022/05/22 02:12:14;;;;;;;2.72;1.00;;;;;;;25.35;27.75;100718.44;5090969;28;20472;-68
2022/05/22 02:14:41;;;;;;;2.08;0.90;;;;;;;25.35;27.95;100722.00;5073093;28;20508;-71
2022/05/22 02:17:08;;;;;;;2.63;1.13;;;;;;;25.38;27.62;100710.56;5090860;28;20803;-68
2022/05/22 02:19:35;;;;;;;2.10;0.90;;;;;;;25.44;27.46;100718.72;5091030;28;20425;-68
2022/05/22 02:22:02;;;;;;;2.50;0.90;;;;;;;25.46;27.35;100716.56;5074813;28;20474;-69
2022/05/22 02:24:29;;;;;;;2.65;1.00;;;;;;;25.68;27.06;100721.75;5091350;28;20419;-68
2022/05/22 02:26:56;;;;;;;1.80;1.00;;;;;;;25.62;27.13;100725.53;5090501;28;20997;-68
2022/05/22 02:30:22;;;;;;;2.67;1.00;;;;;;;25.63;27.19;100725.28;5079726;27;20404;-70
2022/05/22 02:32:49;;;;;;;2.30;1.00;;;;;;;25.72;27.13;100725.56;5065144;28;21004;-70
2022/05/22 02:35:17;;;;;;;1.88;0.90;;;;;;;25.72;27.26;100733.69;5065738;28;20993;-70
2022/05/22 02:37:45;;;;;;;2.95;1.25;;;;;;;25.61;27.49;100735.59;5065816;28;20411;-71
2022/05/22 02:40:14;;;;;;;2.05;0.95;;;;;;;25.69;27.34;100735.03;5051980;28;20470;-70
2022/05/22 02:42:41;;;;;;;1.75;1.00;;;;;;;25.62;27.61;100737.19;5065913;28;20446;-69
2022/05/22 02:45:10;;;;;;;1.60;0.90;;;;;;;25.61;27.70;100734.78;5066168;28;20790;-70
2022/05/22 02:47:38;;;;;;;3.17;1.02;;;;;;;25.63;27.84;100732.59;5065434;28;20459;-71
2022/05/22 02:50:08;;;;;;;3.83;1.00;;;;;;;25.54;27.85;100735.03;5049624;28;20565;-70
2022/05/22 02:52:35;;;;;;;1.95;1.20;;;;;;;25.60;27.79;100733.94;5065479;28;20431;-69
2022/05/22 02:55:02;;;;;;;3.30;1.10;;;;;;;25.67;27.80;100734.50;5065328;28;20951;-78
2022/05/22 02:57:29;;;;;;;1.42;1.08;;;;;;;25.58;28.08;100732.59;5066431;28;20499;-70
2022/05/22 02:59:56;;;;;;;1.50;1.00;;;;;;;25.60;28.26;100738.56;5065548;28;20515;-70
2022/05/22 03:02:23;;;;;;;1.42;0.93;;;;;;;25.71;28.10;100741.03;5065320;28;21000;-73
2022/05/22 03:04:52;;;;;;;3.45;1.00;;;;;;;25.74;28.09;100745.09;5066061;28;20415;-69
2022/05/22 03:07:20;;;;;;;2.42;1.10;;;;;;;25.76;28.02;100741.00;5064594;28;20412;-69
2022/05/22 03:09:48;;;;;;;1.80;1.00;;;;;;;25.76;28.01;100738.28;5065434;28;20435;-70
2022/05/22 03:12:18;;;;;;;2.85;1.10;;;;;;;25.50;28.63;100739.38;5066047;28;20503;-69
2022/05/22 03:14:46;;;;;;;4.00;1.27;;;;;;;25.55;28.67;100747.50;5066158;28;20489;-71
2022/05/22 03:17:13;;;;;;;1.73;0.98;;;;;;;25.73;28.37;100751.59;5065851;28;20422;-69
2022/05/22 03:19:40;;;;;;;3.43;1.10;;;;;;;25.67;28.67;100755.41;5064973;28;20498;-70
2022/05/22 03:22:11;;;;;;;2.40;1.17;;;;;;;25.58;28.41;100760.56;5065244;28;20424;-70
2022/05/22 03:24:38;;;;;;;4.13;1.25;;;;;;;25.42;28.59;100765.13;5065181;28;20864;-69
2022/05/22 03:27:07;;;;;;;3.67;1.10;;;;;;;25.47;28.63;100764.34;5065338;28;20515;-71
2022/05/22 03:29:34;;;;;;;3.40;1.10;;;;;;;25.21;28.80;100768.84;5065549;28;20539;-69
2022/05/22 03:32:01;;;;;;;3.50;1.15;;;;;;;25.29;28.74;100765.66;5064907;28;20424;-69
2022/05/22 03:34:28;;;;;;;2.35;1.20;;;;;;;25.22;28.89;100771.28;5064699;28;20525;-70
2022/05/22 03:36:55;;;;;;;1.77;1.10;;;;;;;25.29;28.92;100780.03;5065352;28;20510;-69
2022/05/22 03:39:24;;;;;;;2.53;1.40;;;;;;;25.25;28.83;100783.56;5064768;28;20828;-69
2022/05/22 03:41:51;;;;;;;4.05;1.20;;;;;;;25.15;29.06;100790.53;5050554;28;20503;-70
2022/05/22 03:44:18;;;;;;;3.13;1.20;;;;;;;24.99;29.25;100797.81;5051723;28;20867;-70
2022/05/22 03:46:45;;;;;;;3.13;1.00;;;;;;;24.96;29.69;100794.81;5051301;28;20516;-70
2022/05/22 03:49:12;;;;;;;2.63;1.30;;;;;;;25.07;29.46;100799.19;5050955;28;20930;-69
2022/05/22 03:51:40;;;;;;;2.53;1.20;;;;;;;25.09;29.52;100799.72;5051550;28;20417;-71
2022/05/22 03:54:07;;;;;;;2.47;1.10;;;;;;;25.14;29.54;100802.47;5051925;28;20432;-69
2022/05/22 03:56:36;;;;;;;3.40;1.20;;;;;;;25.31;29.45;100798.75;5051214;28;20420;-70
2022/05/22 03:59:03;;;;;;;4.50;1.20;;;;;;;25.39;29.40;100798.25;5051372;28;20423;-70
2022/05/22 04:01:31;;;;;;;2.15;1.10;;;;;;;25.31;29.55;100796.84;5038696;28;20497;-69
2022/05/22 04:03:58;;;;;;;2.95;1.30;;;;;;;25.22;29.73;100808.47;5036753;28;20441;-69
2022/05/22 04:06:25;;;;;;;4.68;1.30;;;;;;;25.35;29.37;100805.28;5034026;28;20505;-70
2022/05/22 04:08:52;;;;;;;3.22;1.52;;;;;;;25.41;29.23;100811.53;5036193;28;20521;-71
2022/05/22 04:11:20;;;;;;;3.55;1.85;;;;;;;25.48;29.16;100818.34;5039662;28;20502;-70
2022/05/22 04:13:49;;;;;;;4.38;1.80;;;;;;;25.53;29.12;100812.09;5037629;28;20453;-69
2022/05/22 04:16:17;;;;;;;4.95;1.67;;;;;;;25.46;29.22;100812.38;5037534;28;20440;-69
2022/05/22 04:18:44;;;;;;;2.97;1.45;;;;;;;25.54;29.02;100811.03;5035875;28;20426;-70
2022/05/22 04:21:11;;;;;;;2.33;1.17;;;;;;;25.58;29.05;100812.13;5031811;28;20964;-70
2022/05/22 04:26:22;;;;;;;4.10;1.50;;;;;;;25.63;29.00;100820.28;5036560;28;20783;-70
2022/05/22 04:28:51;;;;;;;2.35;1.40;;;;;;;25.50;29.25;100821.63;5050615;28;20425;-70
2022/05/22 04:31:19;;;;;;;2.70;1.20;;;;;;;25.57;29.15;100815.94;5050502;28;20501;-70
2022/05/22 04:33:46;;;;;;;2.53;1.20;;;;;;;25.57;29.25;100815.94;5050021;28;20420;-70
2022/05/22 04:36:13;;;;;;;2.97;1.23;;;;;;;25.67;29.27;100820.56;5050400;28;20420;-69
2022/05/22 04:38:40;;;;;;;1.60;1.20;;;;;;;25.66;29.23;100827.91;5050702;28;20970;-70
2022/05/22 04:41:07;;;;;;;2.80;1.30;;;;;;;25.58;29.31;100819.47;5049690;28;20515;-71
2022/05/22 04:43:34;;;;;;;2.50;1.30;;;;;;;25.62;29.29;100820.53;5050349;28;20499;-70
2022/05/22 04:46:07;;;;;;;2.22;1.50;;;;;;;25.59;29.60;100821.06;5049800;28;20802;-70
2022/05/22 04:48:34;;;;;;;2.75;1.58;;;;;;;25.53;29.79;100820.25;5050300;28;20416;-69
2022/05/22 04:51:01;;;;;;;2.50;1.40;;;;;;;25.67;29.64;100823.28;5050155;28;20524;-70
2022/05/22 04:53:28;;;;;;;5.63;1.38;;;;;;;25.71;29.72;100819.78;5049031;28;20528;-70
2022/05/22 04:55:56;;;;;;;4.33;1.40;;;;;;;25.72;29.65;100824.09;5049767;28;20421;-70
2022/05/22 04:58:23;;;;;;;3.22;1.27;;;;;;;25.63;29.87;100825.72;5050440;28;20482;-70
2022/05/22 05:00:51;;;;;;;2.70;1.33;;;;;;;25.67;29.90;100823.28;5050033;28;20420;-70
2022/05/22 05:03:20;;;;;;;2.78;1.60;;;;;;;25.74;29.94;100824.66;5050086;28;20427;-69
2022/05/22 05:05:55;;;;;;;3.67;2.17;;;;;;;25.73;29.88;100814.88;5049740;28;20909;-69
2022/05/22 05:08:23;;;;;;;4.90;2.00;;;;;;;25.66;29.99;100817.03;5049806;28;20420;-70
2022/05/22 05:10:51;;;;;;;4.38;2.10;;;;;;;25.74;30.14;100827.34;5050322;28;20425;-70
2022/05/22 05:13:18;;;;;;;1.60;1.48;;;;;;;25.78;30.43;100818.69;5049966;28;20431;-70
2022/05/22 05:15:45;;;;;;;2.88;1.30;;;;;;;25.81;30.39;100823.59;5049209;28;20807;-70
2022/05/22 05:18:13;;;;;;;3.55;1.60;;;;;;;25.49;30.75;100819.97;5034343;28;20440;-69
2022/05/22 05:20:46;;;;;;;3.10;1.50;;;;;;;25.38;30.79;100816.41;5049927;28;20432;-69
2022/05/22 05:23:13;;;;;;;2.53;1.70;;;;;;;25.49;30.76;100821.88;5049390;28;20936;-71
2022/05/22 05:25:40;;;;;;;3.50;1.80;;;;;;;25.44;30.88;100816.44;5048823;28;20503;-70
2022/05/22 05:28:07;;;;;;;4.10;1.73;;;;;;;25.32;31.10;100803.13;5049262;28;20421;-70
2022/05/22 05:30:34;;;;;;;2.85;1.60;;;;;;;25.48;30.91;100815.63;5049171;28;20517;-70
2022/05/22 05:33:02;;;;;;;2.00;1.30;;;;;;;25.23;31.13;100820.94;5049149;28;20416;-70
2022/05/22 05:35:28;;;;;;;1.80;1.30;;;;;;;25.26;31.15;100806.88;5049055;28;20871;-69
2022/05/22 05:37:57;;;;;;;3.63;1.35;;;;;;;25.13;31.39;100810.88;5048739;28;20500;-70
2022/05/22 05:40:24;;;;;;;3.65;1.52;;;;;;;25.24;30.84;100819.88;5049117;28;20496;-69
2022/05/22 05:42:51;;;;;;;3.47;1.70;;;;;;;25.22;30.65;100827.47;5048634;28;20423;-69
2022/05/22 05:45:18;;;;;;;3.35;1.73;;;;;;;25.30;30.53;100816.09;5048640;28;20416;-69
2022/05/22 05:47:47;;;;;;;3.83;1.63;;;;;;;25.36;30.24;100826.72;5048900;28;20417;-69
2022/05/22 05:50:15;;;;;;;2.15;1.40;;;;;;;25.37;30.19;100825.66;5046532;28;20938;-69
2022/05/22 05:52:42;;;;;;;3.20;1.50;;;;;;;25.44;30.00;100813.72;5049134;28;21045;-69
2022/05/22 05:55:11;;;;;;;1.90;1.42;;;;;;;25.31;30.33;100817.75;5049308;28;20416;-69
2022/05/22 05:57:38;;;;;;;3.05;1.20;;;;;;;25.45;30.13;100815.38;5049374;28;20435;-71
2022/05/22 06:00:07;;;;;;;3.53;1.17;;;;;;;25.56;30.17;100812.38;5048887;28;20516;-69
2022/05/22 06:02:34;;;;;;;4.35;1.13;;;;;;;25.42;30.37;100818.59;5049273;28;20550;-70
2022/05/22 06:05:01;;;;;;;2.33;1.23;;;;;;;25.78;29.98;100815.97;5048516;28;20448;-70
2022/05/22 06:07:28;;;;;;;1.90;1.00;;;;;;;25.84;29.82;100813.00;5049066;28;20531;-70
2022/05/22 06:09:55;;;;;;;3.03;1.27;;;;;;;26.44;29.10;100802.41;5048984;28;20433;-70
2022/05/22 06:12:24;;;;;;;6.50;1.30;;;;;;;27.00;28.49;100801.47;5048513;28;20417;-69
2022/05/22 06:14:50;;;;;;;2.90;1.50;;;;;;;27.52;27.48;100806.72;5048748;28;20504;-69
2022/05/22 06:17:18;;;;;;;1.85;1.02;;;;;;;27.48;27.69;100798.28;5048947;28;20867;-69
2022/05/22 06:19:57;;;;;;;3.25;1.30;;;;;;;28.24;26.74;100800.75;5049231;28;20427;-69
2022/05/22 06:22:26;;;;;;;3.87;1.23;;;;;;;29.09;25.48;100802.03;5034135;28;20470;-71
2022/05/22 06:24:54;;;;;;;2.70;1.10;;;;;;;29.45;25.00;100793.38;5048499;28;20940;-70
2022/05/22 06:27:21;;;;;;;1.83;0.90;;;;;;;30.29;24.02;100793.41;5048910;28;20443;-70
2022/05/22 06:29:50;;;;;;;2.50;1.20;;;;;;;30.90;23.79;100798.88;5048018;28;20512;-69
2022/05/22 06:32:19;;;;;;;3.27;1.50;;;;;;;31.17;23.36;100795.31;5033277;28;20508;-70
2022/05/22 06:34:47;;;;;;;2.95;1.42;;;;;;;31.06;23.91;100794.72;5048002;28;20495;-70
2022/05/22 06:37:16;;;;;;;2.35;1.40;;;;;;;31.43;23.73;100800.22;5048727;28;20507;-69
2022/05/22 06:39:52;;;;;;;3.17;1.60;;;;;;;32.41;22.95;100793.19;5048528;28;20504;-68
2022/05/22 06:42:22;;;;;;;3.60;1.58;;;;;;;33.26;22.28;100803.16;5033070;28;20416;-67
2022/05/22 06:44:57;;;;;;;4.07;1.60;;;;;;;33.76;21.59;100797.22;5048790;28;20867;-68
2022/05/22 06:47:25;;;;;;;3.83;1.73;;;;;;;34.56;21.03;100793.16;5048889;28;20452;-69
2022/05/22 06:49:52;;;;;;;2.30;1.30;;;;;;;35.37;19.77;100775.53;5047855;28;20515;-68
2022/05/22 06:52:20;;;;;;;2.72;1.30;;;;;;;36.03;18.79;100778.66;5048319;28;20503;-67
2022/05/22 06:54:47;;;;;;;2.22;1.30;;;;;;;36.34;18.55;100770.69;5047090;28;20500;-68
2022/05/22 06:57:16;;;;;;;2.97;1.40;;;;;;;37.39;17.51;100773.94;5048724;28;20932;-68
2022/05/22 06:59:44;;;;;;;2.38;1.10;;;;;;;37.29;17.95;100777.97;5049005;28;20432;-68
2022/05/22 07:02:14;;;;;;;1.52;1.30;;;;;;;38.03;16.85;100772.13;5047858;28;20412;-69
2022/05/22 07:04:41;;;;;;;2.50;1.30;;;;;;;38.23;16.68;100773.88;5048681;28;20491;-68
2022/05/22 07:07:08;;;;;;;1.70;1.30;;;;;;;37.92;17.15;100774.63;5049565;28;20866;-68
2022/05/22 07:09:36;;;;;;;2.53;1.40;;;;;;;36.80;17.36;100770.59;5048676;28;20449;-68
2022/05/22 07:12:06;;;;;;;2.50;1.00;;;;;;;36.92;17.05;100770.56;5047722;28;20503;-67
2022/05/22 07:14:33;;;;;;;3.53;1.00;;;;;;;36.12;16.91;100769.16;5048497;28;20494;-67
2022/05/22 07:17:02;;;;;;;3.40;1.00;;;;;;;35.65;16.89;100763.91;5051841;28;20412;-68
2022/05/22 07:19:34;;;;;;;5.63;1.10;;;;;;;35.42;16.90;100758.78;5050590;28;20420;-66
2022/05/22 07:22:01;;;;;;;1.73;1.00;;;;;;;34.82;17.75;100762.75;5050201;28;20492;-66
2022/05/22 07:24:28;;;;;;;5.37;1.20;;;;;;;35.28;18.03;100760.22;5051000;28;20492;-66
2022/05/22 07:26:55;;;;;;;3.10;1.00;;;;;;;34.59;17.58;100768.53;5050590;28;20456;-73
2022/05/22 07:29:22;;;;;;;1.83;1.00;;;;;;;34.07;17.66;100755.75;5050901;28;20445;-67
2022/05/22 07:31:49;;;;;;;4.35;0.90;;;;;;;33.56;18.09;100762.13;5050371;28;20505;-66
2022/05/22 07:34:16;;;;;;;2.15;0.90;;;;;;;33.60;18.56;100758.44;5050317;28;20500;-72
2022/05/22 07:36:45;;;;;;;6.88;1.27;;;;;;;33.92;18.48;100748.03;5050636;28;20499;-67
2022/05/22 07:39:30;;;;;;;2.13;1.00;;;;;;;33.34;18.58;100753.72;5052078;28;20412;-68
2022/05/22 07:41:57;;;;;;;4.07;1.10;;;;;;;33.43;18.57;100748.22;5052176;28;20416;-67
2022/05/22 07:44:24;;;;;;;2.75;1.20;;;;;;;33.05;18.75;100748.03;5051741;28;20754;-68
2022/05/22 07:46:52;;;;;;;3.25;1.20;;;;;;;32.99;18.93;100744.66;5050999;28;20419;-67
2022/05/22 07:52:07;;;;;;;3.30;1.20;;;;;;;32.50;18.90;100727.38;5051382;28;20407;-68
2022/05/22 07:54:35;;;;;;;2.85;1.30;;;;;;;32.50;19.28;100741.09;5051611;28;20412;-68
2022/05/22 07:57:02;;;;;;;3.80;1.00;;;;;;;32.01;19.62;100738.25;5051985;28;20412;-67
2022/05/22 07:59:29;;;;;;;3.67;0.85;;;;;;;31.72;19.75;100720.34;5051700;28;20507;-67
2022/05/22 08:01:56;;;;;;;3.05;0.85;;;;;;;31.80;20.01;100721.53;5050576;28;20513;-65
2022/05/22 08:04:23;;;;;;;2.08;0.90;;;;;;;31.48;20.14;100720.69;5050567;28;20495;-65
2022/05/22 08:06:50;;;;;;;2.53;1.20;;;;;;;31.39;20.26;100719.78;5051385;28;20417;-64
2022/05/22 08:09:19;;;;;;;4.80;1.52;;;;;;;31.19;18.12;100718.34;5051302;28;20943;-63
2022/05/22 08:11:46;;;;;;;2.50;1.10;;;;;;;31.29;18.12;100709.88;5050918;28;20428;-62
2022/05/22 08:14:15;;;;;;;3.42;0.90;;;;;;;31.21;17.57;100711.41;5051530;28;20972;-62
2022/05/22 08:16:42;;;;;;;4.30;1.25;;;;;;;30.99;17.52;100709.47;5051095;28;20416;-62
2022/05/22 08:19:09;;;;;;;2.50;0.90;;;;;;;31.08;17.31;100703.25;5049658;28;20416;-62
2022/05/22 08:21:36;;;;;;;7.30;1.10;;;;;;;31.01;17.38;100704.50;5047951;28;20412;-64
2022/05/22 08:24:04;;;;;;;4.60;0.88;;;;;;;30.59;16.39;100700.97;5047514;28;20423;-62
2022/05/22 08:26:32;;;;;;;2.80;0.90;;;;;;;30.87;15.80;100704.47;5049571;28;20500;-62
2022/05/22 08:28:59;;;;;;;2.80;0.70;;;;;;;30.68;16.67;100707.38;5050372;28;20496;-61
2022/05/22 08:31:26;;;;;;;4.68;0.70;;;;;;;30.38;16.75;100697.00;5049764;28;20825;-63
2022/05/22 08:33:53;;;;;;;2.30;0.85;;;;;;;30.47;16.83;100703.44;5048065;28;20420;-62
2022/05/22 08:36:20;;;;;;;6.13;0.98;;;;;;;30.02;16.75;100697.69;5048729;28;20499;-62
2022/05/22 08:38:47;;;;;;;3.72;1.00;;;;;;;30.11;16.87;100709.56;5049966;28;20786;-62
2022/05/22 08:41:21;;;;;;;3.85;0.85;;;;;;;29.88;17.27;100693.00;5050713;28;20487;-61
2022/05/22 08:43:55;;;;;;;3.70;0.93;;;;;;;30.22;17.80;100699.22;5050292;28;20499;-62
2022/05/22 08:46:29;;;;;;;3.58;0.80;;;;;;;30.22;18.00;100699.22;5050111;28;20416;-64
2022/05/22 08:48:58;;;;;;;3.28;0.90;;;;;;;30.28;17.95;100706.22;5050440;28;20519;-63
2022/05/22 08:51:33;;;;;;;2.85;0.95;;;;;;;30.46;18.51;100697.13;5050012;28;20934;-61
2022/05/22 08:54:12;;;;;;;3.60;1.03;;;;;;;30.41;18.41;100701.88;5049700;28;20507;-61
2022/05/22 08:59:30;;;;;;;2.65;0.80;;;;;;;30.26;18.06;100709.25;5048856;28;20458;-61
2022/05/22 09:02:04;;;;;;;4.88;0.80;;;;;;;30.17;18.99;100691.94;5050355;28;20496;-62
2022/05/22 09:04:36;;;;;;;1.80;1.00;;;;;;;30.37;19.50;100696.22;5049994;28;20416;-61
2022/05/22 09:07:20;;;;;;;4.03;0.93;;;;;;;30.14;18.41;100684.31;5050591;28;20435;-61
2022/05/22 09:09:52;;;;;;;4.57;1.02;;;;;;;30.49;19.31;100682.84;5048095;28;20418;-65
2022/05/22 09:12:43;;;;;;;3.15;1.20;;;;;;;30.45;19.40;100681.84;5048825;28;20969;-61
2022/05/22 09:15:16;;;;;;;5.43;0.90;;;;;;;30.33;19.97;100681.50;5048335;28;20485;-60
2022/05/22 09:17:53;;;;;;;5.32;1.10;;;;;;;30.15;20.00;100668.75;5048786;28;20423;-61
2022/05/22 09:20:21;;;;;;;3.90;0.82;;;;;;;30.10;19.89;100667.72;5048008;28;20424;-60
2022/05/22 09:23:03;;;;;;;3.05;0.90;;;;;;;30.26;20.26;100678.38;5048268;28;20910;-61
2022/05/22 09:25:44;;;;;;;4.57;1.52;;;;;;;30.45;21.10;100651.75;5048193;28;20938;-60
2022/05/22 09:28:20;;;;;;;6.03;0.98;;;;;;;29.95;18.73;100673.47;5048961;28;20590;-61
2022/05/22 09:31:01;;;;;;;2.53;0.90;;;;;;;30.03;19.35;100652.84;5049992;28;20468;-63
2022/05/22 09:33:39;;;;;;;4.28;0.77;;;;;;;30.45;19.39;100650.94;5049212;28;20488;-63
2022/05/22 09:36:20;;;;;;;2.88;0.95;;;;;;;30.35;19.75;100657.44;5047943;28;20412;-63
2022/05/22 09:39:07;;;;;;;5.88;1.20;;;;;;;30.45;18.97;100642.72;5047458;28;20448;-63
2022/05/22 09:41:46;;;;;;;5.40;1.10;;;;;;;30.48;19.86;100626.50;5048549;28;20503;-70
2022/05/22 09:44:38;;;;;;;2.90;1.00;;;;;;;30.40;18.78;100638.19;5049248;28;20432;-64
2022/05/22 09:47:35;;;;;;;2.10;0.90;;;;;;;30.25;19.54;100632.97;5049840;28;20847;-62
2022/05/22 09:50:24;;;;;;;2.78;0.90;;;;;;;29.87;19.13;100633.19;5049138;28;20985;-62
2022/05/22 09:53:00;;;;;;;2.55;0.70;;;;;;;29.76;19.90;100635.28;5048548;28;20507;-63
2022/05/22 09:55:51;;;;;;;1.60;0.80;;;;;;;29.78;20.40;100635.00;5048935;28;20423;-63
2022/05/22 09:58:51;;;;;;;1.75;0.90;;;;;;;29.66;19.64;100616.34;5034848;28;20424;-62
2022/05/22 10:01:25;;;;;;;4.22;1.00;;;;;;;29.84;21.95;100609.22;5049262;28;20416;-64
2022/05/22 10:04:09;;;;;;;4.13;1.02;;;;;;;29.48;21.13;100607.91;5048738;28;20419;-64
2022/05/22 10:06:41;;;;;;;2.97;0.90;;;;;;;29.54;20.89;100603.94;5047770;28;20979;-64
2022/05/22 10:09:22;;;;;;;4.70;0.85;;;;;;;29.45;20.79;100600.28;5047426;28;20503;-63
2022/05/22 10:12:12;;;;;;;3.33;0.90;;;;;;;29.55;21.21;100602.06;5047561;28;21013;-62
2022/05/22 10:14:50;;;;;;;3.67;1.20;;;;;;;29.63;21.55;100601.34;5047820;28;20503;-66
2022/05/22 10:17:31;;;;;;;4.60;1.00;;;;;;;29.48;21.70;100598.91;5048334;28;20496;-64
2022/05/22 10:20:09;;;;;;;3.07;1.27;;;;;;;29.27;21.92;100598.44;5048813;28;20495;-64
2022/05/22 10:22:50;;;;;;;1.55;1.00;;;;;;;29.38;21.47;100608.06;5049438;28;20431;-64
2022/05/22 10:25:35;;;;;;;3.05;1.33;;;;;;;29.48;21.48;100601.63;5047415;28;20435;-63
2022/05/22 10:28:06;;;;;;;6.67;1.10;;;;;;;29.35;21.54;100597.72;5046928;28;20410;-66
2022/05/22 10:30:41;;;;;;;2.80;1.00;;;;;;;29.17;22.04;100585.75;5047265;28;20416;-63
2022/05/22 10:33:15;;;;;;;3.25;0.95;;;;;;;29.09;22.50;100600.84;5046781;28;20412;-66
2022/05/22 10:35:50;;;;;;;1.60;0.98;;;;;;;28.98;22.29;100596.69;5046626;28;20421;-63
2022/05/22 10:38:21;;;;;;;2.63;1.00;;;;;;;29.24;22.28;100591.63;5047150;28;20499;-63
2022/05/22 10:43:39;;;;;;;3.70;1.10;;;;;;;28.86;23.01;100597.13;5047153;28;20782;-63
2022/05/22 10:46:06;;;;;;;2.83;1.13;;;;;;;29.26;23.08;100578.53;5047308;28;20495;-63
2022/05/22 10:48:35;;;;;;;3.00;1.10;;;;;;;29.33;22.99;100584.41;5048197;28;20511;-63
2022/05/22 10:51:08;;;;;;;7.38;1.23;;;;;;;29.28;22.46;100584.50;5050057;28;20942;-63
2022/05/22 10:53:38;;;;;;;2.00;1.10;;;;;;;29.23;22.80;100586.50;5052635;28;20924;-63
2022/05/22 10:56:16;;;;;;;5.32;1.08;;;;;;;29.43;22.33;100580.69;5052532;28;20856;-65
2022/05/22 10:58:52;;;;;;;10.75;1.67;;;;;;;29.30;23.17;100578.72;5052853;28;20495;-64
2022/05/22 11:01:21;;;;;;;4.35;1.40;;;;;;;29.44;25.27;100574.13;5052704;28;20412;-61
2022/05/22 11:03:48;;;;;;;1.90;1.10;;;;;;;29.15;23.93;100572.41;5052642;28;20491;-63
2022/05/22 11:06:22;;;;;;;3.65;1.30;;;;;;;26.81;36.87;100578.28;5056746;28;20435;-70
2022/05/22 11:08:55;;;;;;;4.55;1.30;;;;;;;25.60;36.43;100583.84;5053127;28;20408;-64
2022/05/22 11:11:25;;;;;;;3.33;1.25;;;;;;;25.84;34.39;100579.47;5050800;28;20945;-62
2022/05/22 11:13:53;;;;;;;4.15;1.70;;;;;;;25.85;33.98;100580.25;5052884;28;20483;-63
2022/05/22 11:16:29;;;;;;;6.00;1.70;;;;;;;25.54;33.65;100570.28;5051906;28;20787;-63
2022/05/22 11:19:07;;;;;;;2.95;1.25;;;;;;;24.79;36.10;100583.50;5051716;28;20420;-64
2022/05/22 11:21:41;;;;;;;3.70;1.33;;;;;;;23.99;35.64;100587.25;5050710;28;21025;-62
2022/05/22 11:24:22;;;;;;;5.10;1.20;;;;;;;24.20;35.21;100571.94;5050794;28;20420;-62
2022/05/22 11:26:59;;;;;;;3.95;1.40;;;;;;;24.60;34.72;100561.53;5050865;28;20507;-62
2022/05/22 11:29:51;;;;;;;4.43;1.60;;;;;;;25.03;33.10;100575.69;5050890;28;20413;-63
2022/05/22 11:32:31;;;;;;;4.70;1.70;;;;;;;25.49;31.25;100567.56;5051443;28;20516;-61
2022/05/22 11:35:25;;;;;;;5.07;1.40;;;;;;;25.80;30.47;100553.94;5051197;28;20910;-62
2022/05/22 11:38:29;;;;;;;3.40;1.35;;;;;;;26.21;29.98;100561.97;5051666;28;20487;-63
2022/05/22 11:41:02;;;;;;;2.00;1.30;;;;;;;26.46;28.67;100554.78;5051311;28;20993;-63
2022/05/22 11:43:47;;;;;;;3.08;1.20;;;;;;;26.77;28.75;100541.03;5052065;28;20491;-64
2022/05/22 11:46:21;;;;;;;4.20;1.42;;;;;;;27.08;28.16;100541.59;5051484;28;20997;-63
2022/05/22 11:49:07;;;;;;;6.05;1.13;;;;;;;27.31;27.37;100553.69;5051817;28;20487;-64
2022/05/22 11:52:53;;;;;;;2.87;1.10;;;;;;;27.53;26.69;100552.38;5051031;28;20525;-65
2022/05/22 11:55:11;;;;;;;4.50;1.30;;;;;;;27.73;26.51;100549.47;5050572;28;20419;-65
2022/05/22 11:57:44;;;;;;;3.90;1.50;;;;;;;27.89;26.54;100552.00;5051142;28;20411;-65
2022/05/22 12:00:19;;;;;;;4.00;1.20;;;;;;;27.95;26.40;100540.00;5051350;28;20933;-64